createdAt,value
2023-01-28T00:07:29.260Z,99.90
2023-01-28T00:12:26.000Z,99.90
2023-01-28T00:14:54.554Z,99.90
2023-01-28T00:24:49.539Z,99.90
2023-01-28T00:42:10.296Z,99.90
2023-01-28T00:54:32.639Z,99.90
2023-01-28T00:59:30.334Z,99.90
2023-01-28T01:07:32.218Z,99.90
2023-01-28T01:10:02.044Z,99.90
2023-01-28T01:15:02.521Z,99.90
2023-01-28T01:17:32.422Z,99.90
2023-01-28T01:29:56.386Z,99.90
2023-01-28T01:32:26.487Z,99.90
2023-01-28T01:44:57.984Z,99.90
2023-01-28T01:47:33.004Z,99.90
2023-01-28T01:50:05.579Z,99.90
2023-01-28T01:52:36.110Z,99.90
2023-01-28T01:55:10.451Z,99.90
2023-01-28T01:57:41.076Z,99.90
2023-01-28T02:00:10.882Z,99.90
2023-01-28T02:02:43.098Z,99.90
2023-01-28T02:05:13.202Z,99.90
2023-01-28T02:07:45.661Z,99.90
2023-01-28T02:10:16.008Z,99.90
2023-01-28T02:12:46.745Z,99.90
2023-01-28T02:15:19.632Z,99.90
2023-01-28T02:17:52.420Z,99.90
2023-01-28T02:20:24.744Z,99.90
2023-01-28T02:23:19.413Z,99.90
2023-01-28T02:26:30.206Z,99.90
2023-01-28T02:29:07.729Z,99.90
2023-01-28T02:31:41.084Z,99.90
2023-01-28T02:34:20.859Z,99.90
2023-01-28T02:36:53.814Z,99.90
2023-01-28T02:39:26.324Z,99.90
2023-01-28T02:42:01.007Z,99.90
2023-01-28T02:44:30.563Z,99.90
2023-01-28T02:49:51.885Z,99.90
2023-01-28T02:52:45.545Z,99.90
2023-01-28T02:55:20.947Z,99.90
2023-01-28T02:58:01.148Z,99.90
2023-01-28T03:00:40.611Z,99.90
2023-01-28T03:03:17.912Z,99.90
2023-01-28T03:06:03.762Z,99.90
2023-01-28T03:08:54.495Z,99.90
2023-01-28T03:14:27.352Z,99.90
2023-01-28T03:17:18.305Z,99.90
2023-01-28T03:20:04.997Z,99.90
2023-01-28T03:22:52.983Z,99.90
2023-01-28T03:25:41.344Z,99.90
2023-01-28T03:28:32.165Z,99.90
2023-01-28T03:31:22.958Z,99.90
2023-01-28T03:34:11.305Z,99.90
2023-01-28T03:36:48.555Z,99.90
2023-01-28T03:42:06.496Z,99.90
2023-01-28T03:44:54.143Z,99.90
2023-01-28T03:47:23.575Z,99.90
2023-01-28T03:49:54.520Z,99.90
2023-01-28T03:52:24.247Z,99.90
2023-01-28T03:57:23.208Z,99.90
2023-01-28T03:59:52.753Z,99.90
2023-01-28T04:02:31.423Z,99.90
2023-01-28T04:05:01.266Z,99.90
2023-01-28T04:12:27.383Z,99.90
2023-01-28T04:22:22.341Z,99.90
2023-01-28T04:32:15.551Z,99.90
2023-01-28T04:34:43.834Z,99.90
2023-01-28T04:39:42.188Z,99.90
2023-01-28T04:57:04.533Z,99.90
2023-01-28T05:09:28.448Z,99.90
2023-01-28T05:14:27.330Z,99.90
2023-01-28T05:29:25.234Z,99.90
2023-01-28T05:31:56.959Z,99.90
2023-01-28T05:36:53.768Z,99.90
2023-01-28T05:49:23.325Z,99.90
2023-01-28T06:06:44.404Z,99.90
2023-01-28T06:21:35.812Z,99.90
2023-01-28T06:24:06.488Z,99.90
2023-01-28T06:31:34.909Z,99.90
2023-01-28T06:41:32.483Z,99.90
2023-01-28T06:51:27.354Z,99.90
2023-01-28T06:56:26.381Z,99.90
2023-01-28T06:58:56.262Z,99.90
2023-01-28T07:01:24.816Z,99.90
2023-01-28T07:06:27.028Z,99.90
2023-01-28T07:08:56.648Z,99.90
2023-01-28T07:16:24.192Z,99.90
2023-01-28T07:28:48.829Z,99.90
2023-01-28T07:31:17.867Z,99.90
2023-01-28T07:33:47.257Z,99.90
2023-01-28T07:43:44.315Z,99.90
2023-01-28T07:51:15.543Z,99.90
2023-01-28T07:56:14.232Z,99.90
2023-01-28T07:58:42.925Z,99.90
2023-01-28T08:01:14.478Z,99.90
2023-01-28T08:06:15.533Z,99.90
2023-01-28T08:08:43.871Z,99.90
2023-01-28T08:16:11.167Z,99.90
2023-01-28T08:18:41.143Z,99.90
2023-01-28T08:21:14.184Z,99.90
2023-01-28T08:23:45.129Z,99.90
2023-01-28T08:26:13.216Z,99.90
2023-01-28T08:28:42.114Z,99.90
2023-01-28T08:31:11.978Z,99.90
2023-01-28T08:36:09.741Z,99.90
2023-01-28T08:38:38.781Z,99.90
2023-01-28T08:41:09.087Z,99.90
2023-01-28T08:43:38.091Z,99.90
2023-01-28T08:46:08.816Z,99.90
2023-01-28T08:48:38.453Z,99.90
2023-01-28T08:53:35.800Z,99.90
2023-01-28T08:56:11.689Z,99.90
2023-01-28T08:58:42.279Z,99.90
2023-01-28T09:01:12.470Z,99.90
2023-01-28T09:08:42.666Z,99.90
2023-01-28T09:11:16.361Z,99.90
2023-01-28T09:13:46.375Z,99.90
2023-01-28T09:18:46.858Z,99.90
2023-01-28T09:21:15.381Z,99.90
2023-01-28T09:23:44.407Z,99.90
2023-01-28T09:26:13.683Z,99.90
2023-01-28T09:28:43.382Z,99.90
2023-01-28T09:31:16.680Z,99.90
2023-01-28T09:33:45.421Z,99.90
2023-01-28T09:36:13.751Z,99.90
2023-01-28T09:41:25.461Z,99.90
2023-01-28T09:44:07.722Z,99.90
2023-01-28T09:46:45.752Z,99.90
2023-01-28T09:49:23.277Z,99.90
2023-01-28T09:51:55.501Z,99.90
2023-01-28T09:54:34.307Z,99.90
2023-01-28T09:57:10.842Z,99.90
2023-01-28T09:59:39.153Z,99.90
2023-01-28T10:02:33.828Z,99.90
2023-01-28T10:05:16.777Z,99.90
2023-01-28T10:07:55.734Z,99.90
2023-01-28T10:10:30.753Z,99.90
2023-01-28T10:13:22.130Z,98.00
2023-01-28T10:16:00.668Z,99.90
2023-01-28T10:18:38.452Z,92.60
2023-01-28T10:21:16.270Z,76.30
2023-01-28T10:23:54.475Z,78.10
2023-01-28T10:26:26.607Z,31.60
2023-01-28T10:29:01.840Z,33.50
2023-01-28T10:31:34.738Z,49.50
2023-01-28T10:34:05.246Z,46.50
2023-01-28T10:36:35.440Z,44.40
2023-01-28T10:39:04.374Z,53.70
2023-01-28T10:41:34.178Z,24.80
2023-01-28T10:44:04.729Z,31.00
2023-01-28T10:46:36.224Z,31.90
2023-01-28T10:49:14.072Z,11.80
2023-01-28T10:51:44.433Z,22.80
2023-01-28T10:54:24.164Z,12.50
2023-01-28T10:57:03.336Z,28.50
2023-01-28T10:59:34.868Z,67.10
2023-01-28T11:02:06.634Z,12.80
2023-01-28T11:04:37.698Z,21.20
2023-01-28T11:07:07.922Z,19.50
2023-01-28T11:09:38.236Z,9.50
2023-01-28T11:12:15.127Z,19.30
2023-01-28T11:14:52.753Z,19.70
2023-01-28T11:17:24.974Z,11.90
2023-01-28T11:19:55.296Z,2.40
2023-01-28T11:22:33.339Z,1.00
2023-01-28T11:25:04.157Z,1.20
2023-01-28T11:27:34.159Z,1.00
2023-01-28T11:30:07.033Z,1.00
2023-01-28T11:35:07.686Z,1.00
2023-01-28T11:37:38.118Z,1.00
2023-01-28T11:40:21.776Z,1.00
2023-01-28T11:42:52.406Z,1.00
2023-01-28T11:45:26.611Z,1.00
2023-01-28T11:48:11.426Z,1.00
2023-01-28T11:50:52.246Z,1.00
2023-01-28T11:53:44.207Z,1.00
2023-01-28T11:56:39.927Z,1.00
2023-01-28T11:59:24.438Z,1.00
2023-01-28T12:02:02.602Z,1.00
2023-01-28T12:04:49.604Z,1.00
2023-01-28T12:07:31.327Z,1.00
2023-01-28T12:10:04.344Z,1.00
2023-01-28T12:12:46.112Z,1.00
2023-01-28T12:15:43.544Z,1.00
2023-01-28T12:18:28.293Z,1.00
2023-01-28T12:21:11.923Z,1.00
2023-01-28T12:24:05.768Z,1.00
2023-01-28T12:26:44.206Z,1.00
2023-01-28T12:29:28.435Z,1.00
2023-01-28T12:32:15.103Z,1.00
2023-01-28T12:35:01.052Z,1.00
2023-01-28T12:37:49.579Z,1.00
2023-01-28T12:40:50.659Z,1.00
2023-01-28T12:43:26.716Z,17.10
2023-01-28T12:45:58.972Z,1.00
2023-01-28T12:48:33.658Z,1.00
2023-01-28T12:51:07.006Z,1.00
2023-01-28T12:53:42.732Z,1.00
2023-01-28T12:56:18.021Z,1.00
2023-01-28T12:58:53.443Z,1.00
2023-01-28T13:01:26.194Z,1.00
2023-01-28T13:04:02.923Z,1.00
2023-01-28T13:06:35.095Z,1.00
2023-01-28T13:09:12.846Z,1.00
2023-01-28T13:11:43.370Z,1.00
2023-01-28T13:14:14.588Z,1.00
2023-01-28T13:16:42.996Z,1.00
2023-01-28T13:19:24.932Z,1.00
2023-01-28T13:21:54.231Z,1.00
2023-01-28T13:24:25.706Z,1.00
2023-01-28T13:26:57.607Z,1.00
2023-01-28T13:29:34.961Z,1.00
2023-01-28T13:32:04.831Z,1.00
2023-01-28T13:34:37.414Z,1.00
2023-01-28T13:37:18.095Z,1.00
2023-01-28T13:39:53.547Z,1.00
2023-01-28T13:42:29.887Z,1.00
2023-01-28T13:45:16.082Z,1.00
2023-01-28T13:47:49.116Z,1.00
2023-01-28T13:50:22.658Z,3.40
2023-01-28T13:52:56.562Z,9.00
2023-01-28T13:55:42.991Z,7.70
2023-01-28T13:58:32.762Z,22.70
2023-01-28T14:01:52.026Z,31.50
2023-01-28T14:04:55.570Z,1.00
2023-01-28T14:07:48.082Z,23.60
2023-01-28T14:10:35.547Z,20.90
2023-01-28T14:13:24.250Z,35.00
2023-01-28T14:16:08.140Z,47.60
2023-01-28T14:18:40.218Z,36.70
2023-01-28T14:21:13.368Z,32.20
2023-01-28T14:23:48.589Z,31.20
2023-01-28T14:26:32.778Z,21.50
2023-01-28T14:29:12.105Z,21.00
2023-01-28T14:31:42.522Z,35.90
2023-01-28T14:34:24.809Z,50.50
2023-01-28T14:36:57.786Z,42.70
2023-01-28T14:39:28.245Z,21.00
2023-01-28T14:41:59.879Z,38.90
2023-01-28T14:44:36.149Z,37.00
2023-01-28T14:47:31.641Z,63.50
2023-01-28T14:50:20.031Z,80.20
2023-01-28T14:53:06.699Z,88.60
2023-01-28T14:55:42.303Z,93.20
2023-01-28T14:58:17.960Z,82.00
2023-01-28T15:00:55.780Z,71.70
2023-01-28T15:03:28.434Z,50.50
2023-01-28T15:06:07.940Z,87.40
2023-01-28T15:08:36.518Z,86.60
2023-01-28T15:11:09.524Z,54.60
2023-01-28T15:13:39.842Z,38.10
2023-01-28T15:16:08.919Z,37.70
2023-01-28T15:18:43.842Z,47.00
2023-01-28T15:21:12.529Z,38.50
2023-01-28T15:23:44.715Z,48.10
2023-01-28T15:26:17.320Z,54.80
2023-01-28T15:28:47.466Z,44.10
2023-01-28T15:31:23.551Z,43.90
2023-01-28T15:34:00.713Z,38.50
2023-01-28T15:36:31.558Z,44.50
2023-01-28T15:39:01.570Z,45.80
2023-01-28T15:41:36.317Z,36.00
2023-01-28T15:44:05.670Z,60.60
2023-01-28T15:46:36.070Z,52.10
2023-01-28T15:49:05.780Z,19.10
2023-01-28T15:51:35.071Z,42.20
2023-01-28T15:54:07.152Z,20.00
2023-01-28T15:56:36.276Z,17.70
2023-01-28T15:59:21.083Z,44.30
2023-01-28T16:01:50.013Z,29.50
2023-01-28T16:04:28.191Z,1.00
2023-01-28T16:06:58.058Z,1.00
2023-01-28T16:09:30.110Z,1.00
2023-01-28T16:12:04.451Z,1.00
2023-01-28T16:14:38.322Z,1.00
2023-01-28T16:17:06.779Z,1.00
2023-01-28T16:19:39.890Z,1.00
2023-01-28T16:22:10.047Z,1.00
2023-01-28T16:24:38.738Z,1.00
2023-01-28T16:27:21.179Z,1.00
2023-01-28T16:32:32.855Z,1.00
2023-01-28T16:35:03.650Z,1.00
2023-01-28T16:37:34.631Z,1.00
2023-01-28T16:40:05.408Z,1.00
2023-01-28T16:42:35.209Z,1.00
2023-01-28T16:45:03.867Z,1.00
2023-01-28T16:50:04.201Z,1.00
2023-01-28T16:52:34.705Z,1.00
2023-01-28T16:55:02.970Z,1.00
2023-01-28T16:57:35.332Z,1.00
2023-01-28T17:00:05.608Z,1.00
2023-01-28T17:02:35.716Z,1.00
2023-01-28T17:05:05.706Z,1.00
2023-01-28T17:07:36.057Z,1.00
2023-01-28T17:10:04.430Z,1.00
2023-01-28T17:12:32.761Z,1.00
2023-01-28T17:15:01.155Z,1.00
2023-01-28T17:17:29.547Z,1.00
2023-01-28T17:19:58.105Z,1.00
2023-01-28T17:22:28.911Z,1.00
2023-01-28T17:24:57.141Z,1.00
2023-01-28T17:27:25.544Z,1.00
2023-01-28T17:29:55.277Z,1.00
2023-01-28T17:32:24.652Z,1.00
2023-01-28T17:34:52.699Z,1.00
2023-01-28T17:37:20.736Z,1.00
2023-01-28T17:39:50.082Z,1.00
2023-01-28T17:42:18.422Z,1.00
2023-01-28T17:44:49.582Z,1.00
2023-01-28T17:47:18.154Z,1.00
2023-01-28T17:49:46.464Z,1.00
2023-01-28T17:52:15.311Z,1.00
2023-01-28T17:57:13.314Z,1.00
2023-01-28T17:59:44.045Z,1.00
2023-01-28T18:02:13.696Z,1.00
2023-01-28T18:04:43.689Z,1.00
2023-01-28T18:07:13.264Z,1.00
2023-01-28T18:09:45.473Z,1.00
2023-01-28T18:12:16.722Z,1.00
2023-01-28T18:14:46.336Z,1.00
2023-01-28T18:17:14.860Z,1.00
2023-01-28T18:19:43.296Z,1.00
2023-01-28T18:22:12.723Z,1.00
2023-01-28T18:24:40.680Z,1.00
2023-01-28T18:27:09.582Z,1.00
2023-01-28T18:29:41.967Z,1.00
2023-01-28T18:32:10.109Z,1.00
2023-01-28T18:34:40.054Z,1.00
2023-01-28T18:37:10.307Z,1.00
2023-01-28T18:39:39.876Z,1.00
2023-01-28T18:42:08.865Z,1.00
2023-01-28T18:44:39.130Z,1.00
2023-01-28T18:47:07.205Z,1.00
2023-01-28T18:52:04.674Z,1.00
2023-01-28T18:54:32.950Z,1.00
2023-01-28T18:57:01.074Z,1.00
2023-01-28T18:59:29.782Z,1.00
2023-01-28T19:01:59.796Z,1.00
2023-01-28T19:04:29.272Z,1.00
2023-01-28T19:06:58.241Z,1.00
2023-01-28T19:09:26.677Z,1.00
2023-01-28T19:11:54.959Z,1.00
2023-01-28T19:14:23.240Z,1.00
2023-01-28T19:16:53.597Z,1.00
2023-01-28T19:19:24.493Z,1.00
2023-01-28T19:21:53.711Z,1.00
2023-01-28T19:24:22.241Z,1.00
2023-01-28T19:26:50.449Z,1.00
2023-01-28T19:29:19.579Z,1.00
2023-01-28T19:34:18.226Z,1.00
2023-01-28T19:36:48.135Z,1.00
2023-01-28T19:39:17.451Z,1.00
2023-01-28T19:44:14.748Z,1.00
2023-01-28T19:46:44.238Z,1.00
2023-01-28T19:49:13.058Z,1.00
2023-01-28T19:51:42.241Z,1.00
2023-01-28T19:54:16.021Z,1.00
2023-01-28T19:59:16.395Z,1.00
2023-01-28T20:01:46.384Z,1.00
2023-01-28T20:04:14.631Z,1.00
2023-01-28T20:09:16.363Z,1.00
2023-01-28T20:11:49.304Z,1.00
2023-01-28T20:14:18.774Z,1.00
2023-01-28T20:16:47.000Z,1.00
2023-01-28T20:19:16.924Z,1.00
2023-01-28T20:21:46.669Z,1.00
2023-01-28T20:24:16.995Z,1.00
2023-01-28T20:29:19.141Z,1.00
2023-01-28T20:34:40.921Z,1.00
2023-01-28T20:37:10.384Z,1.00
2023-01-28T20:39:39.852Z,1.00
2023-01-28T20:42:10.156Z,1.00
2023-01-28T20:47:07.113Z,1.00
2023-01-28T20:49:35.139Z,1.00
2023-01-28T20:52:04.714Z,1.00
2023-01-28T20:54:34.363Z,1.00
2023-01-28T20:57:05.577Z,1.00
2023-01-28T20:59:38.240Z,1.00
2023-01-28T21:04:39.682Z,1.00
2023-01-28T21:07:09.728Z,1.00
2023-01-28T21:09:42.406Z,1.00
2023-01-28T21:12:12.088Z,1.00
2023-01-28T21:14:40.599Z,1.00
2023-01-28T21:17:09.214Z,1.00
2023-01-28T21:19:37.792Z,1.00
2023-01-28T21:22:08.225Z,1.00
2023-01-28T21:27:05.681Z,1.00
2023-01-28T21:29:35.765Z,1.00
2023-01-28T21:32:03.887Z,1.00
2023-01-28T21:34:32.417Z,1.00
2023-01-28T21:37:00.397Z,1.00
2023-01-28T21:39:29.279Z,1.00
2023-01-28T21:41:57.815Z,1.00
2023-01-28T21:44:25.976Z,1.00
2023-01-28T21:46:57.589Z,1.00
2023-01-28T21:51:56.325Z,1.00
2023-01-28T21:54:24.536Z,1.00
2023-01-28T21:56:53.833Z,1.00
2023-01-28T21:59:32.924Z,1.00
2023-01-28T22:02:04.133Z,1.00
2023-01-28T22:04:36.570Z,1.00
2023-01-28T22:07:06.481Z,1.00
2023-01-28T22:09:35.462Z,1.00
2023-01-28T22:12:05.056Z,1.00
2023-01-28T22:17:03.985Z,1.00
2023-01-28T22:19:32.597Z,1.00
2023-01-28T22:22:01.937Z,1.00
2023-01-28T22:24:30.561Z,1.00
2023-01-28T22:27:06.699Z,1.00
2023-01-28T22:32:27.740Z,1.00
2023-01-28T22:34:56.711Z,1.00
2023-01-28T22:37:24.732Z,1.00
2023-01-28T22:39:57.514Z,1.00
2023-01-28T22:42:25.492Z,1.00
2023-01-28T22:44:53.909Z,1.00
2023-01-28T22:47:23.506Z,1.00
2023-01-28T22:49:51.443Z,1.00
2023-01-28T22:52:19.763Z,1.00
2023-01-28T22:54:49.115Z,1.00
2023-01-28T23:00:00.377Z,1.00
2023-01-28T23:02:30.177Z,1.00
2023-01-28T23:04:58.340Z,1.00
2023-01-28T23:07:27.466Z,1.00
2023-01-28T23:09:56.620Z,1.00
2023-01-28T23:17:58.999Z,1.00
2023-01-28T23:23:36.297Z,1.00
2023-01-28T23:28:42.073Z,1.00
2023-01-28T23:33:41.423Z,1.00
2023-01-28T23:36:10.220Z,1.00
2023-01-28T23:38:40.643Z,1.00
2023-01-28T23:46:07.702Z,1.00
2023-01-28T23:51:09.516Z,1.00
2023-01-28T23:56:10.612Z,1.00
